D/T METAR WX W/DIR W/SPE G/SPE TEMP DEWP
16/01/19 03:50 EGGD 160350Z AUTO 21011KT 9999 BKN007 OVC011 08/08 Q1008 SSW (210°) 12.7mph 8°C 8°C
16/01/19 03:20 EGGD 160320Z AUTO 21010KT 9999 BKN007 OVC012 08/08 Q1009 SSW (210°) 11.5mph 8°C 8°C
16/01/19 02:50 EGGD 160250Z AUTO 22011KT 9999 BKN007 OVC011 08/08 Q1010 SW (220°) 12.7mph 8°C 8°C
16/01/19 02:20 EGGD 160220Z AUTO 22012KT 9999 OVC007 08/08 Q1010 SW (220°) 13.8mph 8°C 8°C
16/01/19 01:50 EGGD 160150Z AUTO 21011KT 9999 OVC007 08/08 Q1010 SSW (210°) 12.7mph 8°C 8°C
16/01/19 01:20 EGGD 160120Z AUTO 21010KT 9999 OVC008 08/07 Q1011 SSW (210°) 11.5mph 8°C 7°C
16/01/19 00:50 EGGD 160050Z AUTO 21009KT 9999 OVC009 08/07 Q1011 SSW (210°) 10.4mph 8°C 7°C
16/01/19 00:20 EGGD 160020Z AUTO 21009KT 9999 BKN009 BKN034 07/07 Q1012 SSW (210°) 10.4mph 7°C 7°C
15/01/19 23:50 EGGD 152350Z AUTO 21009KT 180V240 9999 BKN009 BKN019 OVC030 07/07 Q1012 SSW (210°) 10.4mph 7°C 7°C
15/01/19 23:20 EGGD 152320Z AUTO 20007KT 9999 BKN009 BKN013 OVC032 07/07 Q1013 SSW (200°) 8.1mph 7°C 7°C
15/01/19 22:50 EGGD 152250Z AUTO 20009KT 9999 FEW009 OVC031 07/07 Q1013 SSW (200°) 10.4mph 7°C 7°C
15/01/19 22:20 EGGD 152220Z AUTO 20007KT 9999 BKN009 OVC035 07/07 Q1013 SSW (200°) 8.1mph 7°C 7°C
15/01/19 21:50 EGGD 152150Z AUTO 22009KT 9999 SCT012 OVC024 07/07 Q1014 SW (220°) 10.4mph 7°C 7°C
15/01/19 21:20 EGGD 152120Z AUTO 21009KT 9999 FEW015 OVC024 07/06 Q1014 SSW (210°) 10.4mph 7°C 6°C
15/01/19 20:50 EGGD 152050Z AUTO 21008KT 9999 BKN021 OVC031 07/06 Q1014 SSW (210°) 9.2mph 7°C 6°C
15/01/19 20:20 EGGD 152020Z AUTO 22010KT 9999 BKN022 OVC027 07/06 Q1015 SW (220°) 11.5mph 7°C 6°C
15/01/19 19:50 EGGD 151950Z AUTO 22009KT 9999 OVC024 07/06 Q1015 SW (220°) 10.4mph 7°C 6°C
15/01/19 19:20 EGGD 151920Z AUTO 21009KT 9999 SCT018 OVC024 07/06 Q1015 SSW (210°) 10.4mph 7°C 6°C
15/01/19 18:50 EGGD 151850Z AUTO 22009KT 9999 OVC014 07/06 Q1016 SW (220°) 10.4mph 7°C 6°C
15/01/19 18:20 EGGD 151820Z AUTO 23009KT 9999 OVC013 07/07 Q1016 SW (230°) 10.4mph 7°C 7°C
15/01/19 17:50 EGGD 151750Z AUTO 23009KT 9999 OVC012 07/07 Q1016 SW (230°) 10.4mph 7°C 7°C
15/01/19 17:20 EGGD 151720Z AUTO 23009KT 9999 BKN008 BKN014 OVC020 07/07 Q1016 SW (230°) 10.4mph 7°C 7°C
15/01/19 16:20 EGGD 151620Z AUTO 23009KT 9999 BKN002 OVC017 07/07 Q1017 SW (230°) 10.4mph 7°C 7°C
15/01/19 15:50 EGGD 151550Z 24012KT 9999 VCSH SCT004 BKN014 07/07 Q1017 VCSH WSW (240°) 13.8mph 7°C 7°C
15/01/19 15:20 EGGD 151520Z 25013KT 9999 6000SE VCSH SCT003 BKN018 07/07 Q1017 REDZ VCSH WSW (250°) 15.0mph 7°C 7°C
15/01/19 14:50 EGGD 151450Z 25014KT 9999 7000W VCSH SCT002 BKN003 BKN012 08/08 Q1017 VCSH WSW (250°) 16.1mph 8°C 8°C
15/01/19 14:20 EGGD 151420Z 25015KT 9999 4000S SCT002 BKN009 08/08 Q1018 REDZ WSW (250°) 17.3mph 8°C 8°C
15/01/19 13:50 EGGD 151350Z 25014KT 0900 R27/P1500 DZ FG OVC002 08/08 Q1018 REDZ DZ FG WSW (250°) 16.1mph 8°C 8°C
15/01/19 13:20 EGGD 151320Z 25012KT 1100 R27/1400 DZ BR OVC002 08/08 Q1018 DZ BR WSW (250°) 13.8mph 8°C 8°C
15/01/19 12:50 EGGD 151250Z 26013KT 4500 2200W BR FEW001 BKN002 08/08 Q1019 BR W (260°) 15.0mph 8°C 8°C
15/01/19 12:20 EGGD 151220Z 25011KT 0500 R27/0900 -DZ FG FEW001 OVC002 08/08 Q1019 -DZ FG WSW (250°) 12.7mph 8°C 8°C
15/01/19 11:50 EGGD 151150Z 24009KT 1200 R27/1200 -DZ BR FEW000 OVC002 07/07 Q1019 -DZ BR WSW (240°) 10.4mph 7°C 7°C
15/01/19 11:20 EGGD 151120Z 24010KT 0900 R27/0600 -DZ FG FEW000 BKN001 07/07 Q1020 -DZ FG WSW (240°) 11.5mph 7°C 7°C
15/01/19 10:50 EGGD 151050Z AUTO 24009KT 0300 R27/0450 FG VV/// 07/07 Q1020 RERA REDZ FG WSW (240°) 10.4mph 7°C 7°C
15/01/19 10:20 EGGD 151020Z AUTO 24010KT 2400 RADZ OVC002 07/07 Q1020 RA DZ WSW (240°) 11.5mph 7°C 7°C
15/01/19 09:50 EGGD 150950Z AUTO 22010KT 6000 BKN007 OVC019 07/07 Q1020 SW (220°) 11.5mph 7°C 7°C
15/01/19 09:20 EGGD 150920Z AUTO 23010KT 9999 BKN013 OVC017 07/07 Q1020 SW (230°) 11.5mph 7°C 7°C
15/01/19 08:50 EGGD 150850Z AUTO 22009KT 9999 BKN019 06/06 Q1020 SW (220°) 10.4mph 6°C 6°C
15/01/19 08:20 EGGD 150820Z 22007KT 9999 FEW009 SCT018 06/06 Q1020 SW (220°) 8.1mph 6°C 6°C
15/01/19 07:50 EGGD 150750Z 23007KT 9999 -DZ FEW004 BKN007 06/06 Q1020 -DZ SW (230°) 8.1mph 6°C 6°C
15/01/19 06:50 EGGD 150650Z 24008KT 9999 -DZ FEW002 BKN004 07/07 Q1021 -DZ WSW (240°) 9.2mph 7°C 7°C
15/01/19 06:20 EGGD 150620Z AUTO 25010KT 9999 BKN002 OVC020 07/07 Q1021 WSW (250°) 11.5mph 7°C 7°C
15/01/19 05:50 EGGD 150550Z AUTO 25010KT 9999 BKN003 BKN013 OVC024 07/07 Q1021 WSW (250°) 11.5mph 7°C 7°C
15/01/19 05:20 EGGD 150520Z AUTO 25010KT 9999 FEW006 OVC022 07/07 Q1021 WSW (250°) 11.5mph 7°C 7°C
15/01/19 04:50 EGGD 150450Z AUTO 25009KT 9999 BKN022 OVC027 07/07 Q1021 WSW (250°) 10.4mph 7°C 7°C
15/01/19 04:20 EGGD 150420Z AUTO 24009KT 9999 FEW015 OVC021 07/07 Q1021 WSW (240°) 10.4mph 7°C 7°C
15/01/19 03:50 EGGD 150350Z AUTO 24008KT 9999 OVC021 07/06 Q1022 WSW (240°) 9.2mph 7°C 6°C
15/01/19 03:20 EGGD 150320Z AUTO 24007KT 9999 FEW010 OVC015 07/06 Q1022 WSW (240°) 8.1mph 7°C 6°C
15/01/19 02:50 EGGD 150250Z AUTO 25007KT 9999 -RA BKN010 OVC015 07/06 Q1022 -RA WSW (250°) 8.1mph 7°C 6°C
15/01/19 02:20 EGGD 150220Z AUTO 24006KT 9999 BKN014 OVC019 07/06 Q1023 WSW (240°) 6.9mph 7°C 6°C
15/01/19 01:50 EGGD 150150Z AUTO 25008KT 9999 BKN019 OVC024 06/06 Q1023 WSW (250°) 9.2mph 6°C 6°C
15/01/19 01:20 EGGD 150120Z AUTO 25009KT 9999 OVC021 06/05 Q1023 WSW (250°) 10.4mph 6°C 5°C
15/01/19 00:50 EGGD 150050Z AUTO 25008KT 9999 OVC022 06/05 Q1023 WSW (250°) 9.2mph 6°C 5°C
14/01/19 23:50 EGGD 142350Z AUTO 25008KT 9999 NCD 05/03 Q1023 WSW (250°) 9.2mph 5°C 3°C
14/01/19 23:20 EGGD 142320Z AUTO 26010KT 9999 FEW024 04/02 Q1023 W (260°) 11.5mph 4°C 2°C
14/01/19 22:50 EGGD 142250Z AUTO 26011KT 9999 NCD 04/02 Q1023 W (260°) 12.7mph 4°C 2°C
14/01/19 21:50 EGGD 142150Z AUTO 26008KT 9999 SCT030 05/03 Q1024 W (260°) 9.2mph 5°C 3°C
14/01/19 21:20 EGGD 142120Z AUTO 27009KT 9999 SCT028 05/03 Q1024 W (270°) 10.4mph 5°C 3°C
14/01/19 20:50 EGGD 142050Z AUTO 27009KT 9999 OVC027 06/03 Q1023 W (270°) 10.4mph 6°C 3°C
14/01/19 20:20 EGGD 142020Z AUTO 26009KT 9999 OVC027 06/04 Q1024 W (260°) 10.4mph 6°C 4°C
14/01/19 19:50 EGGD 141950Z AUTO 27008KT 9999 OVC027 06/04 Q1024 W (270°) 9.2mph 6°C 4°C
14/01/19 19:20 EGGD 141920Z AUTO 26008KT 9999 OVC033 06/04 Q1024 W (260°) 9.2mph 6°C 4°C
14/01/19 18:50 EGGD 141850Z AUTO 26010KT 9999 OVC033 06/04 Q1024 W (260°) 11.5mph 6°C 4°C
14/01/19 18:20 EGGD 141820Z AUTO 27010KT 9999 OVC034 06/04 Q1024 W (270°) 11.5mph 6°C 4°C
14/01/19 17:50 EGGD 141750Z AUTO 24006KT 210V280 9999 OVC035 06/04 Q1023 WSW (240°) 6.9mph 6°C 4°C
14/01/19 17:20 EGGD 141720Z AUTO 26006KT 9999 OVC034 06/04 Q1023 W (260°) 6.9mph 6°C 4°C
14/01/19 16:50 EGGD 141650Z AUTO 29006KT 9999 OVC035 07/03 Q1023 WNW (290°) 6.9mph 7°C 3°C
14/01/19 16:20 EGGD 141620Z AUTO 29006KT 9999 OVC035 07/03 Q1023 WNW (290°) 6.9mph 7°C 3°C
14/01/19 15:50 EGGD 141550Z AUTO 29008KT 9999 OVC034 07/03 Q1023 WNW (290°) 9.2mph 7°C 3°C
14/01/19 15:20 EGGD 141520Z AUTO 29009KT 9999 OVC030 07/03 Q1023 WNW (290°) 10.4mph 7°C 3°C
14/01/19 14:50 EGGD 141450Z AUTO 29007KT 9999 BKN033 07/03 Q1023 WNW (290°) 8.1mph 7°C 3°C
14/01/19 14:20 EGGD 141420Z 29007KT 9999 BKN032 08/03 Q1023 WNW (290°) 8.1mph 8°C 3°C
14/01/19 13:50 EGGD 141350Z 30009KT 9999 BKN031 08/03 Q1023 WNW (300°) 10.4mph 8°C 3°C
14/01/19 12:50 EGGD 141250Z 29007KT 9999 BKN031 08/03 Q1023 WNW (290°) 8.1mph 8°C 3°C
14/01/19 12:20 EGGD 141220Z 29010KT 9999 BKN035 08/04 Q1023 WNW (290°) 11.5mph 8°C 4°C
14/01/19 11:20 EGGD 141120Z 29010KT 9999 BKN033 07/04 Q1023 WNW (290°) 11.5mph 7°C 4°C
14/01/19 10:50 EGGD 141050Z 27009KT 9999 BKN036 07/04 Q1023 W (270°) 10.4mph 7°C 4°C
14/01/19 10:20 EGGD 141020Z 28009KT 9999 BKN036 07/03 Q1022 W (280°) 10.4mph 7°C 3°C
14/01/19 09:20 EGGD 140920Z 28008KT 9999 BKN035 07/04 Q1022 W (280°) 9.2mph 7°C 4°C
14/01/19 08:50 EGGD 140850Z AUTO 29010KT 9999 BKN034 06/04 Q1022 WNW (290°) 11.5mph 6°C 4°C
14/01/19 08:20 EGGD 140820Z 29009KT 9999 BKN034 06/04 Q1022 WNW (290°) 10.4mph 6°C 4°C
14/01/19 07:50 EGGD 140750Z 25007KT 9999 BKN034 06/04 Q1021 WSW (250°) 8.1mph 6°C 4°C
14/01/19 07:20 EGGD 140720Z 29008KT 9999 SCT032 06/04 Q1020 WNW (290°) 9.2mph 6°C 4°C
14/01/19 06:50 EGGD 140650Z 29009KT 9999 SCT033 07/04 Q1020 WNW (290°) 10.4mph 7°C 4°C
14/01/19 06:20 EGGD 140620Z AUTO 29008KT 9999 BKN032 07/03 Q1020 WNW (290°) 9.2mph 7°C 3°C
14/01/19 05:50 EGGD 140550Z AUTO 28009KT 9999 OVC030 07/03 Q1020 W (280°) 10.4mph 7°C 3°C
14/01/19 05:20 EGGD 140520Z AUTO 31011KT 9999 OVC030 07/03 Q1020 NW (310°) 12.7mph 7°C 3°C
14/01/19 04:50 EGGD 140450Z AUTO 30011KT 9999 OVC031 07/03 Q1020 WNW (300°) 12.7mph 7°C 3°C
14/01/19 04:20 EGGD 140420Z AUTO 29009KT 9999 OVC032 07/03 Q1020 WNW (290°) 10.4mph 7°C 3°C
14/01/19 03:20 EGGD 140320Z AUTO 30012KT 9999 BKN035 07/03 Q1019 WNW (300°) 13.8mph 7°C 3°C
14/01/19 02:50 EGGD 140250Z AUTO 32017KT 9999 BKN035 BKN042 07/02 Q1019 NW (320°) 19.6mph 7°C 2°C
14/01/19 02:20 EGGD 140220Z AUTO 28006KT 9999 BKN036 OVC042 07/03 Q1019 W (280°) 6.9mph 7°C 3°C
14/01/19 01:50 EGGD 140150Z AUTO 30012KT 9999 BKN036 07/03 Q1018 WNW (300°) 13.8mph 7°C 3°C
14/01/19 01:20 EGGD 140120Z AUTO 31009KT 9999 OVC035 07/02 Q1018 NW (310°) 10.4mph 7°C 2°C
14/01/19 00:50 EGGD 140050Z AUTO 29007KT 260V320 9999 OVC035 07/02 Q1018 WNW (290°) 8.1mph 7°C 2°C
13/01/19 23:50 EGGD 132350Z AUTO 29013KT 9999 BKN037 07/02 Q1017 WNW (290°) 15.0mph 7°C 2°C
13/01/19 23:20 EGGD 132320Z AUTO 30015KT 9999 FEW037 08/02 Q1017 WNW (300°) 17.3mph 8°C 2°C
13/01/19 22:50 EGGD 132250Z AUTO 31020G31KT 9999 SCT035 08/02 Q1017 NW (310°) 23.0mph 35.7mph 8°C 2°C
13/01/19 22:20 EGGD 132220Z AUTO 30013KT 9999 BKN029 BKN034 08/04 Q1016 WNW (300°) 15.0mph 8°C 4°C
13/01/19 21:50 EGGD 132150Z AUTO 31009KT 9999 OVC031 08/05 Q1016 NW (310°) 10.4mph 8°C 5°C
13/01/19 21:20 EGGD 132120Z AUTO 30008KT 9999 OVC031 08/05 Q1016 WNW (300°) 9.2mph 8°C 5°C
13/01/19 20:50 EGGD 132050Z AUTO 29011KT 9999 BKN036 09/05 Q1016 WNW (290°) 12.7mph 9°C 5°C
13/01/19 20:20 EGGD 132020Z AUTO 30012KT 9999 SCT038 09/05 Q1015 WNW (300°) 13.8mph 9°C 5°C
13/01/19 19:50 EGGD 131950Z AUTO 29015G26KT 9999 FEW028 09/07 Q1015 WNW (290°) 17.3mph 29.9mph 9°C 7°C
13/01/19 19:20 EGGD 131920Z AUTO 27016KT 9999 BKN028 09/08 Q1014 W (270°) 18.4mph 9°C 8°C
13/01/19 18:50 EGGD 131850Z AUTO 26017KT 9999 OVC026 09/08 Q1014 W (260°) 19.6mph 9°C 8°C
13/01/19 18:20 EGGD 131820Z AUTO 26014KT 9999 OVC025 09/08 Q1014 W (260°) 16.1mph 9°C 8°C
13/01/19 17:50 EGGD 131750Z AUTO 26014KT 9999 BKN025 OVC030 09/09 Q1014 W (260°) 16.1mph 9°C 9°C
13/01/19 17:20 EGGD 131720Z AUTO 25015KT 9999 BKN020 OVC025 08/08 Q1014 WSW (250°) 17.3mph 8°C 8°C
13/01/19 16:50 EGGD 131650Z 26015KT 9999 FEW003 SCT005 09/09 Q1014 W (260°) 17.3mph 9°C 9°C
13/01/19 16:20 EGGD 131620Z AUTO 26017KT 9999 OVC003 08/08 Q1015 W (260°) 19.6mph 8°C 8°C
13/01/19 15:20 EGGD 131520Z AUTO 26017KT 9999 OVC002 08/08 Q1015 W (260°) 19.6mph 8°C 8°C
13/01/19 14:50 EGGD 131450Z 26019KT 3000 BR BKN001 OVC002 08/08 Q1015 REDZ BR W (260°) 21.9mph 8°C 8°C
13/01/19 14:20 EGGD 131420Z AUTO 26019KT 3500 BR OVC001 08/08 Q1015 BR W (260°) 21.9mph 8°C 8°C
13/01/19 13:50 EGGD 131350Z 26019KT 0800 R27/P1500 FG SCT001 OVC002 08/08 Q1015 FG W (260°) 21.9mph 8°C 8°C
13/01/19 13:20 EGGD 131320Z 26025G37KT 6000 OVC002 08/08 Q1015 W (260°) 28.8mph 42.6mph 8°C 8°C
13/01/19 12:50 EGGD 131250Z 26026KT 5000 -RA OVC004 09/09 Q1015 -RA W (260°) 29.9mph 9°C 9°C
13/01/19 12:20 EGGD 131220Z AUTO 25021G32KT 9999 OVC006 09/09 Q1016 WSW (250°) 24.2mph 36.8mph 9°C 9°C
13/01/19 11:50 EGGD 131150Z AUTO 26023G33KT 9999 OVC005 09/09 Q1016 W (260°) 26.5mph 38.0mph 9°C 9°C
13/01/19 11:20 EGGD 131120Z AUTO 26024G34KT 9999 OVC005 08/08 Q1017 W (260°) 27.6mph 39.1mph 8°C 8°C
13/01/19 10:50 EGGD 131050Z AUTO 26023KT 9999 OVC004 09/09 Q1017 W (260°) 26.5mph 9°C 9°C
13/01/19 10:20 EGGD 131020Z 26022KT 9999 SCT006 BKN016 09/08 Q1017 W (260°) 25.3mph 9°C 8°C
13/01/19 09:50 EGGD 130950Z 26022KT 9999 SCT006 BKN018 08/08 Q1017 W (260°) 25.3mph 8°C 8°C
13/01/19 09:20 EGGD 130920Z AUTO 26020KT 9999 OVC005 08/08 Q1018 W (260°) 23.0mph 8°C 8°C
13/01/19 08:50 EGGD 130850Z 26022KT 9999 BKN007 08/08 Q1018 W (260°) 25.3mph 8°C 8°C
13/01/19 08:20 EGGD 130820Z 26024G34KT 9999 SCT007 SCT013 08/08 Q1018 W (260°) 27.6mph 39.1mph 8°C 8°C
13/01/19 07:50 EGGD 130750Z 26023KT 9999 SCT008 BKN014 08/08 Q1018 W (260°) 26.5mph 8°C 8°C
13/01/19 07:20 EGGD 130720Z 26021KT 9999 SCT007 BKN014 08/08 Q1018 W (260°) 24.2mph 8°C 8°C
13/01/19 06:50 EGGD 130650Z 26023KT 9999 SCT007 BKN014 08/08 Q1018 W (260°) 26.5mph 8°C 8°C
13/01/19 06:20 EGGD 130620Z AUTO 26023G33KT 9999 OVC004 08/08 Q1018 W (260°) 26.5mph 38.0mph 8°C 8°C
13/01/19 05:50 EGGD 130550Z AUTO 26019G32KT 9999 OVC003 08/08 Q1018 W (260°) 21.9mph 36.8mph 8°C 8°C
13/01/19 05:20 EGGD 130520Z AUTO 26020KT 9000 OVC003 08/08 Q1019 W (260°) 23.0mph 8°C 8°C
13/01/19 04:50 EGGD 130450Z AUTO 26015KT 9999 OVC002 08/08 Q1019 W (260°) 17.3mph 8°C 8°C
13/01/19 04:20 EGGD 130420Z AUTO 25016KT 7000 OVC002 08/08 Q1020 WSW (250°) 18.4mph 8°C 8°C
13/01/19 03:50 EGGD 130350Z AUTO 25016KT 8000 OVC003 09/09 Q1020 WSW (250°) 18.4mph 9°C 9°C
13/01/19 02:50 EGGD 130250Z AUTO 26017KT 9000 OVC003 09/09 Q1020 W (260°) 19.6mph 9°C 9°C
13/01/19 02:20 EGGD 130220Z AUTO 26019KT 9999 OVC003 09/09 Q1020 W (260°) 21.9mph 9°C 9°C
13/01/19 01:50 EGGD 130150Z AUTO 26019KT 9999 OVC003 09/09 Q1020 W (260°) 21.9mph 9°C 9°C
13/01/19 01:20 EGGD 130120Z AUTO 26017KT 9999 BKN004 OVC016 09/09 Q1021 W (260°) 19.6mph 9°C 9°C
13/01/19 00:50 EGGD 130050Z AUTO 26019KT 9000 BKN004 OVC016 09/09 Q1021 W (260°) 21.9mph 9°C 9°C
13/01/19 00:20 EGGD 130020Z AUTO 25014KT 9999 BKN004 OVC015 08/08 Q1021 WSW (250°) 16.1mph 8°C 8°C
12/01/19 23:50 EGGD 122350Z AUTO 26014KT 9999 OVC016 09/09 Q1022 W (260°) 16.1mph 9°C 9°C
12/01/19 23:20 EGGD 122320Z AUTO 24012KT 9999 OVC015 09/09 Q1022 WSW (240°) 13.8mph 9°C 9°C
12/01/19 22:50 EGGD 122250Z AUTO 26013KT 9999 OVC018 09/08 Q1022 W (260°) 15.0mph 9°C 8°C